sensor_id;sensor_type;location;lat;lon;timestamp;P1;durP1;ratioP1;P2;durP2;ratioP2
33475;SDS011;19814;48.224;11.422;2023-05-16T00:00:22;5.55;;;3.42;;
33475;SDS011;19814;48.224;11.422;2023-05-16T00:02:49;6.57;;;3.40;;
33475;SDS011;19814;48.224;11.422;2023-05-16T00:05:15;6.68;;;3.15;;
33475;SDS011;19814;48.224;11.422;2023-05-16T00:07:42;5.68;;;3.17;;
33475;SDS011;19814;48.224;11.422;2023-05-16T00:10:08;5.53;;;3.20;;
33475;SDS011;19814;48.224;11.422;2023-05-16T00:12:34;5.25;;;3.08;;
33475;SDS011;19814;48.224;11.422;2023-05-16T00:15:01;4.90;;;2.92;;
33475;SDS011;19814;48.224;11.422;2023-05-16T00:17:29;6.40;;;3.70;;
33475;SDS011;19814;48.224;11.422;2023-05-16T00:19:54;7.32;;;3.65;;
33475;SDS011;19814;48.224;11.422;2023-05-16T00:22:23;6.80;;;3.50;;
33475;SDS011;19814;48.224;11.422;2023-05-16T00:24:49;7.72;;;3.40;;
33475;SDS011;19814;48.224;11.422;2023-05-16T00:27:15;6.05;;;3.58;;
33475;SDS011;19814;48.224;11.422;2023-05-16T00:29:40;6.28;;;3.80;;
33475;SDS011;19814;48.224;11.422;2023-05-16T00:32:06;4.97;;;3.30;;
33475;SDS011;19814;48.224;11.422;2023-05-16T00:34:32;7.20;;;3.58;;
33475;SDS011;19814;48.224;11.422;2023-05-16T00:36:58;5.93;;;2.92;;
33475;SDS011;19814;48.224;11.422;2023-05-16T00:39:24;6.50;;;3.38;;
33475;SDS011;19814;48.224;11.422;2023-05-16T00:41:50;5.97;;;3.40;;
33475;SDS011;19814;48.224;11.422;2023-05-16T00:44:16;5.03;;;3.40;;
33475;SDS011;19814;48.224;11.422;2023-05-16T00:46:41;7.60;;;3.25;;
33475;SDS011;19814;48.224;11.422;2023-05-16T00:49:07;7.63;;;3.63;;
33475;SDS011;19814;48.224;11.422;2023-05-16T00:51:33;6.65;;;3.67;;
33475;SDS011;19814;48.224;11.422;2023-05-16T00:54:00;6.65;;;3.20;;
33475;SDS011;19814;48.224;11.422;2023-05-16T00:56:26;5.93;;;3.65;;
33475;SDS011;19814;48.224;11.422;2023-05-16T00:58:52;6.07;;;3.45;;
33475;SDS011;19814;48.224;11.422;2023-05-16T01:01:18;7.95;;;3.85;;
33475;SDS011;19814;48.224;11.422;2023-05-16T01:03:45;7.45;;;3.47;;
33475;SDS011;19814;48.224;11.422;2023-05-16T01:06:12;6.05;;;3.63;;
33475;SDS011;19814;48.224;11.422;2023-05-16T01:08:37;6.68;;;3.83;;
33475;SDS011;19814;48.224;11.422;2023-05-16T01:16:53;6.78;;;4.38;;
33475;SDS011;19814;48.224;11.422;2023-05-16T01:27:34;6.68;;;3.83;;
33475;SDS011;19814;48.224;11.422;2023-05-16T01:29:59;9.02;;;4.35;;
33475;SDS011;19814;48.224;11.422;2023-05-16T01:32:26;5.88;;;3.78;;
33475;SDS011;19814;48.224;11.422;2023-05-16T01:34:51;7.72;;;4.10;;
33475;SDS011;19814;48.224;11.422;2023-05-16T01:37:28;9.68;;;3.92;;
33475;SDS011;19814;48.224;11.422;2023-05-16T01:40:03;7.75;;;4.20;;
33475;SDS011;19814;48.224;11.422;2023-05-16T01:42:38;6.63;;;3.95;;
33475;SDS011;19814;48.224;11.422;2023-05-16T01:45:23;7.00;;;4.32;;
33475;SDS011;19814;48.224;11.422;2023-05-16T01:48:09;6.90;;;3.65;;
33475;SDS011;19814;48.224;11.422;2023-05-16T01:50:46;6.38;;;3.72;;
33475;SDS011;19814;48.224;11.422;2023-05-16T01:53:19;7.05;;;4.32;;
33475;SDS011;19814;48.224;11.422;2023-05-16T01:55:55;6.80;;;4.25;;
33475;SDS011;19814;48.224;11.422;2023-05-16T01:58:22;6.82;;;3.83;;
33475;SDS011;19814;48.224;11.422;2023-05-16T02:00:58;10.13;;;4.80;;
33475;SDS011;19814;48.224;11.422;2023-05-16T02:03:27;7.15;;;4.35;;
33475;SDS011;19814;48.224;11.422;2023-05-16T02:05:53;5.78;;;3.90;;
33475;SDS011;19814;48.224;11.422;2023-05-16T02:08:19;9.77;;;4.22;;
33475;SDS011;19814;48.224;11.422;2023-05-16T02:10:45;7.45;;;4.10;;
33475;SDS011;19814;48.224;11.422;2023-05-16T02:13:10;8.13;;;4.63;;
33475;SDS011;19814;48.224;11.422;2023-05-16T02:15:36;8.57;;;4.80;;
33475;SDS011;19814;48.224;11.422;2023-05-16T02:18:01;10.82;;;4.65;;
33475;SDS011;19814;48.224;11.422;2023-05-16T02:20:27;6.95;;;4.05;;
33475;SDS011;19814;48.224;11.422;2023-05-16T02:22:52;7.88;;;4.78;;
33475;SDS011;19814;48.224;11.422;2023-05-16T02:25:18;8.52;;;4.40;;
33475;SDS011;19814;48.224;11.422;2023-05-16T02:27:43;9.73;;;4.57;;
33475;SDS011;19814;48.224;11.422;2023-05-16T02:30:09;8.18;;;4.47;;
33475;SDS011;19814;48.224;11.422;2023-05-16T02:32:38;8.73;;;4.80;;
33475;SDS011;19814;48.224;11.422;2023-05-16T02:35:05;7.30;;;4.57;;
33475;SDS011;19814;48.224;11.422;2023-05-16T02:37:31;8.77;;;4.55;;
33475;SDS011;19814;48.224;11.422;2023-05-16T02:39:56;7.63;;;5.07;;
33475;SDS011;19814;48.224;11.422;2023-05-16T02:42:22;7.63;;;4.50;;
33475;SDS011;19814;48.224;11.422;2023-05-16T02:44:49;8.02;;;4.97;;
33475;SDS011;19814;48.224;11.422;2023-05-16T02:47:15;6.55;;;4.28;;
33475;SDS011;19814;48.224;11.422;2023-05-16T02:49:40;6.30;;;4.03;;
33475;SDS011;19814;48.224;11.422;2023-05-16T02:52:06;7.35;;;4.53;;
33475;SDS011;19814;48.224;11.422;2023-05-16T02:54:31;8.00;;;4.75;;
33475;SDS011;19814;48.224;11.422;2023-05-16T02:56:57;9.25;;;4.85;;
33475;SDS011;19814;48.224;11.422;2023-05-16T02:59:23;7.20;;;4.20;;
33475;SDS011;19814;48.224;11.422;2023-05-16T03:01:48;8.25;;;4.80;;
33475;SDS011;19814;48.224;11.422;2023-05-16T03:04:14;9.40;;;4.60;;
33475;SDS011;19814;48.224;11.422;2023-05-16T03:06:40;7.80;;;4.95;;
33475;SDS011;19814;48.224;11.422;2023-05-16T03:09:06;8.43;;;4.50;;
33475;SDS011;19814;48.224;11.422;2023-05-16T03:11:31;8.00;;;4.72;;
33475;SDS011;19814;48.224;11.422;2023-05-16T03:13:57;11.45;;;4.60;;
33475;SDS011;19814;48.224;11.422;2023-05-16T03:16:24;7.00;;;4.38;;
33475;SDS011;19814;48.224;11.422;2023-05-16T03:18:49;6.88;;;4.53;;
33475;SDS011;19814;48.224;11.422;2023-05-16T03:21:15;8.15;;;4.57;;
33475;SDS011;19814;48.224;11.422;2023-05-16T03:23:40;7.90;;;5.20;;
33475;SDS011;19814;48.224;11.422;2023-05-16T03:26:06;8.02;;;4.75;;
33475;SDS011;19814;48.224;11.422;2023-05-16T03:28:31;7.18;;;4.07;;
33475;SDS011;19814;48.224;11.422;2023-05-16T03:30:57;9.02;;;5.35;;
33475;SDS011;19814;48.224;11.422;2023-05-16T03:33:23;7.60;;;4.32;;
33475;SDS011;19814;48.224;11.422;2023-05-16T03:35:48;7.20;;;4.60;;
33475;SDS011;19814;48.224;11.422;2023-05-16T03:38:15;8.80;;;4.65;;
33475;SDS011;19814;48.224;11.422;2023-05-16T03:40:41;9.85;;;4.65;;
33475;SDS011;19814;48.224;11.422;2023-05-16T03:43:07;9.32;;;4.50;;
33475;SDS011;19814;48.224;11.422;2023-05-16T03:45:32;9.63;;;5.35;;
33475;SDS011;19814;48.224;11.422;2023-05-16T03:47:58;7.13;;;4.60;;
33475;SDS011;19814;48.224;11.422;2023-05-16T03:50:24;8.07;;;5.00;;
33475;SDS011;19814;48.224;11.422;2023-05-16T03:52:50;8.38;;;4.53;;
33475;SDS011;19814;48.224;11.422;2023-05-16T03:55:16;7.63;;;4.65;;
33475;SDS011;19814;48.224;11.422;2023-05-16T03:57:42;6.85;;;4.10;;
33475;SDS011;19814;48.224;11.422;2023-05-16T04:00:08;9.68;;;5.20;;
33475;SDS011;19814;48.224;11.422;2023-05-16T04:02:36;10.48;;;4.88;;
33475;SDS011;19814;48.224;11.422;2023-05-16T04:05:02;8.60;;;5.30;;
33475;SDS011;19814;48.224;11.422;2023-05-16T04:07:28;7.35;;;4.47;;
33475;SDS011;19814;48.224;11.422;2023-05-16T04:09:53;7.40;;;4.28;;
33475;SDS011;19814;48.224;11.422;2023-05-16T04:12:20;10.30;;;5.00;;
33475;SDS011;19814;48.224;11.422;2023-05-16T04:14:47;10.18;;;5.03;;
33475;SDS011;19814;48.224;11.422;2023-05-16T04:17:12;7.38;;;4.38;;
33475;SDS011;19814;48.224;11.422;2023-05-16T04:19:38;7.53;;;4.68;;
33475;SDS011;19814;48.224;11.422;2023-05-16T04:22:03;10.35;;;5.55;;
33475;SDS011;19814;48.224;11.422;2023-05-16T04:24:29;8.50;;;5.20;;
33475;SDS011;19814;48.224;11.422;2023-05-16T04:26:55;8.20;;;5.13;;
33475;SDS011;19814;48.224;11.422;2023-05-16T04:29:20;7.80;;;4.72;;
33475;SDS011;19814;48.224;11.422;2023-05-16T04:31:46;8.68;;;4.57;;
33475;SDS011;19814;48.224;11.422;2023-05-16T04:34:12;8.18;;;5.13;;
33475;SDS011;19814;48.224;11.422;2023-05-16T04:36:39;8.55;;;5.05;;
33475;SDS011;19814;48.224;11.422;2023-05-16T04:39:04;8.30;;;4.75;;
33475;SDS011;19814;48.224;11.422;2023-05-16T04:41:31;9.52;;;4.95;;
33475;SDS011;19814;48.224;11.422;2023-05-16T04:43:57;7.32;;;4.85;;
33475;SDS011;19814;48.224;11.422;2023-05-16T04:46:24;10.32;;;5.55;;
33475;SDS011;19814;48.224;11.422;2023-05-16T04:48:50;8.88;;;5.57;;
33475;SDS011;19814;48.224;11.422;2023-05-16T04:51:16;8.23;;;5.32;;
33475;SDS011;19814;48.224;11.422;2023-05-16T04:53:41;9.13;;;5.30;;
33475;SDS011;19814;48.224;11.422;2023-05-16T04:56:07;8.02;;;5.20;;
33475;SDS011;19814;48.224;11.422;2023-05-16T04:58:32;8.20;;;4.95;;
33475;SDS011;19814;48.224;11.422;2023-05-16T05:00:58;9.30;;;5.43;;
33475;SDS011;19814;48.224;11.422;2023-05-16T05:03:23;9.60;;;5.50;;
33475;SDS011;19814;48.224;11.422;2023-05-16T05:05:49;10.25;;;5.65;;
33475;SDS011;19814;48.224;11.422;2023-05-16T05:08:15;8.50;;;5.63;;
33475;SDS011;19814;48.224;11.422;2023-05-16T05:10:42;8.77;;;5.43;;
33475;SDS011;19814;48.224;11.422;2023-05-16T05:13:07;10.07;;;6.55;;
33475;SDS011;19814;48.224;11.422;2023-05-16T05:15:34;9.65;;;5.55;;
33475;SDS011;19814;48.224;11.422;2023-05-16T05:18:00;9.60;;;5.40;;
33475;SDS011;19814;48.224;11.422;2023-05-16T05:20:26;11.43;;;6.35;;
33475;SDS011;19814;48.224;11.422;2023-05-16T05:22:51;10.43;;;6.03;;
33475;SDS011;19814;48.224;11.422;2023-05-16T05:25:17;8.70;;;5.47;;
33475;SDS011;19814;48.224;11.422;2023-05-16T05:27:44;9.90;;;5.80;;
33475;SDS011;19814;48.224;11.422;2023-05-16T05:30:10;10.18;;;5.18;;
33475;SDS011;19814;48.224;11.422;2023-05-16T05:32:36;8.93;;;5.57;;
33475;SDS011;19814;48.224;11.422;2023-05-16T05:35:02;9.90;;;5.43;;
33475;SDS011;19814;48.224;11.422;2023-05-16T05:37:28;10.18;;;6.28;;
33475;SDS011;19814;48.224;11.422;2023-05-16T05:39:54;10.30;;;6.05;;
33475;SDS011;19814;48.224;11.422;2023-05-16T05:42:19;11.07;;;6.30;;
33475;SDS011;19814;48.224;11.422;2023-05-16T05:44:45;8.40;;;5.70;;
33475;SDS011;19814;48.224;11.422;2023-05-16T05:47:11;11.07;;;5.88;;
33475;SDS011;19814;48.224;11.422;2023-05-16T05:49:36;10.70;;;5.95;;
33475;SDS011;19814;48.224;11.422;2023-05-16T05:52:02;11.18;;;6.35;;
33475;SDS011;19814;48.224;11.422;2023-05-16T05:54:28;9.45;;;5.95;;
33475;SDS011;19814;48.224;11.422;2023-05-16T05:56:54;12.85;;;6.60;;
33475;SDS011;19814;48.224;11.422;2023-05-16T05:59:21;9.55;;;6.43;;
33475;SDS011;19814;48.224;11.422;2023-05-16T06:01:46;9.50;;;5.88;;
33475;SDS011;19814;48.224;11.422;2023-05-16T06:04:16;9.45;;;6.13;;
33475;SDS011;19814;48.224;11.422;2023-05-16T06:06:45;13.25;;;6.93;;
33475;SDS011;19814;48.224;11.422;2023-05-16T06:09:11;10.02;;;6.25;;
33475;SDS011;19814;48.224;11.422;2023-05-16T06:11:38;10.32;;;6.20;;
33475;SDS011;19814;48.224;11.422;2023-05-16T06:14:05;10.45;;;6.07;;
33475;SDS011;19814;48.224;11.422;2023-05-16T06:16:31;9.90;;;6.63;;
33475;SDS011;19814;48.224;11.422;2023-05-16T06:18:56;9.10;;;6.40;;
33475;SDS011;19814;48.224;11.422;2023-05-16T06:21:22;12.75;;;7.03;;
33475;SDS011;19814;48.224;11.422;2023-05-16T06:23:47;9.52;;;6.22;;
33475;SDS011;19814;48.224;11.422;2023-05-16T06:26:13;10.45;;;6.88;;
33475;SDS011;19814;48.224;11.422;2023-05-16T06:28:38;10.38;;;6.85;;
33475;SDS011;19814;48.224;11.422;2023-05-16T06:31:04;11.57;;;7.70;;
33475;SDS011;19814;48.224;11.422;2023-05-16T06:33:30;11.85;;;7.43;;
33475;SDS011;19814;48.224;11.422;2023-05-16T06:35:55;11.73;;;7.28;;
33475;SDS011;19814;48.224;11.422;2023-05-16T06:38:21;11.82;;;6.88;;
33475;SDS011;19814;48.224;11.422;2023-05-16T06:40:46;10.98;;;7.28;;
33475;SDS011;19814;48.224;11.422;2023-05-16T06:43:12;12.23;;;7.63;;
33475;SDS011;19814;48.224;11.422;2023-05-16T06:45:37;10.70;;;7.00;;
33475;SDS011;19814;48.224;11.422;2023-05-16T06:48:03;14.18;;;7.13;;
33475;SDS011;19814;48.224;11.422;2023-05-16T06:50:31;12.02;;;7.82;;
33475;SDS011;19814;48.224;11.422;2023-05-16T06:52:57;11.70;;;7.07;;
33475;SDS011;19814;48.224;11.422;2023-05-16T06:55:22;13.35;;;7.93;;
33475;SDS011;19814;48.224;11.422;2023-05-16T06:57:48;11.65;;;7.25;;
33475;SDS011;19814;48.224;11.422;2023-05-16T07:00:13;10.73;;;7.43;;
33475;SDS011;19814;48.224;11.422;2023-05-16T07:02:39;11.18;;;7.10;;
33475;SDS011;19814;48.224;11.422;2023-05-16T07:05:05;10.65;;;7.65;;
33475;SDS011;19814;48.224;11.422;2023-05-16T07:07:31;11.02;;;7.00;;
33475;SDS011;19814;48.224;11.422;2023-05-16T07:09:57;10.13;;;6.75;;
33475;SDS011;19814;48.224;11.422;2023-05-16T07:12:22;10.82;;;7.22;;
33475;SDS011;19814;48.224;11.422;2023-05-16T07:14:48;11.05;;;6.75;;
33475;SDS011;19814;48.224;11.422;2023-05-16T07:17:13;10.93;;;7.53;;
33475;SDS011;19814;48.224;11.422;2023-05-16T07:19:39;10.07;;;6.68;;
33475;SDS011;19814;48.224;11.422;2023-05-16T07:22:05;11.43;;;7.30;;
33475;SDS011;19814;48.224;11.422;2023-05-16T07:24:30;10.68;;;6.95;;
33475;SDS011;19814;48.224;11.422;2023-05-16T07:26:56;9.38;;;6.30;;
33475;SDS011;19814;48.224;11.422;2023-05-16T07:29:21;9.48;;;6.03;;
33475;SDS011;19814;48.224;11.422;2023-05-16T07:31:46;10.32;;;7.00;;
33475;SDS011;19814;48.224;11.422;2023-05-16T07:34:12;9.00;;;6.30;;
33475;SDS011;19814;48.224;11.422;2023-05-16T07:36:38;9.73;;;6.47;;
33475;SDS011;19814;48.224;11.422;2023-05-16T07:39:03;9.32;;;6.55;;
33475;SDS011;19814;48.224;11.422;2023-05-16T07:41:29;9.98;;;6.90;;
33475;SDS011;19814;48.224;11.422;2023-05-16T07:43:55;11.90;;;8.07;;
33475;SDS011;19814;48.224;11.422;2023-05-16T07:46:20;11.25;;;7.05;;
33475;SDS011;19814;48.224;11.422;2023-05-16T07:48:46;12.05;;;7.03;;
33475;SDS011;19814;48.224;11.422;2023-05-16T07:51:12;9.70;;;6.65;;
33475;SDS011;19814;48.224;11.422;2023-05-16T07:53:37;10.02;;;6.85;;
33475;SDS011;19814;48.224;11.422;2023-05-16T07:56:03;11.43;;;7.20;;
33475;SDS011;19814;48.224;11.422;2023-05-16T07:58:29;10.13;;;6.70;;
33475;SDS011;19814;48.224;11.422;2023-05-16T08:00:54;10.73;;;7.38;;
33475;SDS011;19814;48.224;11.422;2023-05-16T08:03:20;10.98;;;7.47;;
33475;SDS011;19814;48.224;11.422;2023-05-16T08:05:46;12.38;;;8.57;;
33475;SDS011;19814;48.224;11.422;2023-05-16T08:08:12;12.63;;;6.95;;
33475;SDS011;19814;48.224;11.422;2023-05-16T08:10:38;9.65;;;7.03;;
33475;SDS011;19814;48.224;11.422;2023-05-16T08:13:04;10.68;;;7.07;;
33475;SDS011;19814;48.224;11.422;2023-05-16T08:15:29;13.13;;;7.97;;
33475;SDS011;19814;48.224;11.422;2023-05-16T08:17:58;12.00;;;8.30;;
33475;SDS011;19814;48.224;11.422;2023-05-16T08:20:25;13.32;;;8.15;;
33475;SDS011;19814;48.224;11.422;2023-05-16T08:22:50;11.63;;;8.23;;
33475;SDS011;19814;48.224;11.422;2023-05-16T08:25:16;12.85;;;8.27;;
33475;SDS011;19814;48.224;11.422;2023-05-16T08:27:43;12.10;;;8.35;;
33475;SDS011;19814;48.224;11.422;2023-05-16T08:30:10;10.88;;;8.07;;
33475;SDS011;19814;48.224;11.422;2023-05-16T08:32:36;12.77;;;8.00;;
33475;SDS011;19814;48.224;11.422;2023-05-16T08:35:02;11.73;;;8.63;;
33475;SDS011;19814;48.224;11.422;2023-05-16T08:37:28;12.93;;;8.50;;
33475;SDS011;19814;48.224;11.422;2023-05-16T08:39:54;12.73;;;7.93;;
33475;SDS011;19814;48.224;11.422;2023-05-16T08:42:19;13.60;;;8.52;;
33475;SDS011;19814;48.224;11.422;2023-05-16T08:44:45;14.10;;;8.63;;
33475;SDS011;19814;48.224;11.422;2023-05-16T08:47:11;14.98;;;8.70;;
33475;SDS011;19814;48.224;11.422;2023-05-16T08:49:43;12.52;;;8.35;;
33475;SDS011;19814;48.224;11.422;2023-05-16T08:52:12;12.90;;;8.90;;
33475;SDS011;19814;48.224;11.422;2023-05-16T08:54:40;11.02;;;7.95;;
33475;SDS011;19814;48.224;11.422;2023-05-16T08:57:06;12.05;;;8.68;;
33475;SDS011;19814;48.224;11.422;2023-05-16T08:59:33;12.93;;;9.00;;
33475;SDS011;19814;48.224;11.422;2023-05-16T09:01:59;11.93;;;8.95;;
33475;SDS011;19814;48.224;11.422;2023-05-16T09:04:25;12.90;;;8.90;;
33475;SDS011;19814;48.224;11.422;2023-05-16T09:06:51;12.32;;;8.70;;
33475;SDS011;19814;48.224;11.422;2023-05-16T09:09:17;12.80;;;8.80;;
33475;SDS011;19814;48.224;11.422;2023-05-16T09:11:43;13.68;;;8.82;;
33475;SDS011;19814;48.224;11.422;2023-05-16T09:14:09;13.10;;;8.80;;
33475;SDS011;19814;48.224;11.422;2023-05-16T09:16:35;13.27;;;8.90;;
33475;SDS011;19814;48.224;11.422;2023-05-16T09:19:00;14.98;;;9.30;;
33475;SDS011;19814;48.224;11.422;2023-05-16T09:21:27;15.23;;;10.05;;
33475;SDS011;19814;48.224;11.422;2023-05-16T09:23:55;14.35;;;10.00;;
33475;SDS011;19814;48.224;11.422;2023-05-16T09:26:26;14.15;;;9.38;;
33475;SDS011;19814;48.224;11.422;2023-05-16T09:28:52;13.60;;;9.48;;
33475;SDS011;19814;48.224;11.422;2023-05-16T09:31:23;13.52;;;9.25;;
33475;SDS011;19814;48.224;11.422;2023-05-16T09:36:26;14.82;;;9.20;;
33475;SDS011;19814;48.224;11.422;2023-05-16T09:38:52;12.60;;;9.30;;
33475;SDS011;19814;48.224;11.422;2023-05-16T09:41:18;14.15;;;8.73;;
33475;SDS011;19814;48.224;11.422;2023-05-16T09:43:46;18.10;;;10.45;;
33475;SDS011;19814;48.224;11.422;2023-05-16T09:46:14;13.30;;;10.18;;
33475;SDS011;19814;48.224;11.422;2023-05-16T09:48:43;12.90;;;9.60;;
33475;SDS011;19814;48.224;11.422;2023-05-16T09:51:10;15.98;;;9.45;;
33475;SDS011;19814;48.224;11.422;2023-05-16T09:53:36;14.25;;;9.95;;
33475;SDS011;19814;48.224;11.422;2023-05-16T09:56:07;13.90;;;9.40;;
33475;SDS011;19814;48.224;11.422;2023-05-16T09:58:38;13.77;;;9.80;;
33475;SDS011;19814;48.224;11.422;2023-05-16T10:01:05;13.00;;;9.95;;
33475;SDS011;19814;48.224;11.422;2023-05-16T10:03:36;16.00;;;9.98;;
33475;SDS011;19814;48.224;11.422;2023-05-16T10:06:03;15.60;;;9.98;;
33475;SDS011;19814;48.224;11.422;2023-05-16T10:08:31;13.35;;;9.38;;
33475;SDS011;19814;48.224;11.422;2023-05-16T10:11:00;14.85;;;10.00;;
33475;SDS011;19814;48.224;11.422;2023-05-16T10:13:28;14.70;;;9.93;;
33475;SDS011;19814;48.224;11.422;2023-05-16T10:15:56;12.32;;;8.70;;
33475;SDS011;19814;48.224;11.422;2023-05-16T10:18:28;15.52;;;10.65;;
33475;SDS011;19814;48.224;11.422;2023-05-16T10:20:56;14.32;;;10.70;;
33475;SDS011;19814;48.224;11.422;2023-05-16T10:23:30;14.40;;;10.38;;
33475;SDS011;19814;48.224;11.422;2023-05-16T10:25:59;13.55;;;9.70;;
33475;SDS011;19814;48.224;11.422;2023-05-16T10:28:28;15.45;;;10.55;;
33475;SDS011;19814;48.224;11.422;2023-05-16T10:30:53;13.98;;;10.30;;
33475;SDS011;19814;48.224;11.422;2023-05-16T10:33:20;14.00;;;9.90;;
33475;SDS011;19814;48.224;11.422;2023-05-16T10:35:46;17.98;;;11.25;;
33475;SDS011;19814;48.224;11.422;2023-05-16T10:38:12;15.82;;;10.60;;
33475;SDS011;19814;48.224;11.422;2023-05-16T10:40:40;16.85;;;11.48;;
33475;SDS011;19814;48.224;11.422;2023-05-16T10:43:06;15.07;;;10.95;;
33475;SDS011;19814;48.224;11.422;2023-05-16T10:45:33;13.38;;;10.18;;
33475;SDS011;19814;48.224;11.422;2023-05-16T10:48:03;16.13;;;11.35;;
33475;SDS011;19814;48.224;11.422;2023-05-16T10:50:40;15.43;;;10.95;;
33475;SDS011;19814;48.224;11.422;2023-05-16T11:06:24;15.18;;;11.43;;
33475;SDS011;19814;48.224;11.422;2023-05-16T11:11:40;13.70;;;10.05;;
33475;SDS011;19814;48.224;11.422;2023-05-16T11:14:19;17.13;;;11.35;;
33475;SDS011;19814;48.224;11.422;2023-05-16T11:16:50;18.50;;;11.02;;
33475;SDS011;19814;48.224;11.422;2023-05-16T11:20:02;17.52;;;11.68;;
33475;SDS011;19814;48.224;11.422;2023-05-16T11:24:52;16.85;;;11.43;;
33475;SDS011;19814;48.224;11.422;2023-05-16T11:27:22;14.57;;;10.73;;
33475;SDS011;19814;48.224;11.422;2023-05-16T11:32:16;16.17;;;10.73;;
33475;SDS011;19814;48.224;11.422;2023-05-16T11:34:45;13.63;;;10.55;;
33475;SDS011;19814;48.224;11.422;2023-05-16T11:37:12;14.63;;;11.15;;
33475;SDS011;19814;48.224;11.422;2023-05-16T11:39:39;16.27;;;11.93;;
33475;SDS011;19814;48.224;11.422;2023-05-16T11:42:04;15.32;;;10.70;;
33475;SDS011;19814;48.224;11.422;2023-05-16T11:44:30;14.93;;;10.35;;
33475;SDS011;19814;48.224;11.422;2023-05-16T11:47:04;16.45;;;11.70;;
33475;SDS011;19814;48.224;11.422;2023-05-16T11:49:29;16.25;;;11.20;;
33475;SDS011;19814;48.224;11.422;2023-05-16T11:51:55;16.05;;;11.32;;
33475;SDS011;19814;48.224;11.422;2023-05-16T11:54:21;15.02;;;11.07;;
33475;SDS011;19814;48.224;11.422;2023-05-16T11:56:48;19.52;;;11.82;;
33475;SDS011;19814;48.224;11.422;2023-05-16T11:59:15;15.02;;;10.57;;
33475;SDS011;19814;48.224;11.422;2023-05-16T12:01:41;13.77;;;10.30;;
33475;SDS011;19814;48.224;11.422;2023-05-16T12:04:10;17.17;;;11.15;;
33475;SDS011;19814;48.224;11.422;2023-05-16T12:06:38;14.02;;;10.35;;
33475;SDS011;19814;48.224;11.422;2023-05-16T12:09:04;15.30;;;10.10;;
33475;SDS011;19814;48.224;11.422;2023-05-16T12:11:36;15.52;;;10.95;;
33475;SDS011;19814;48.224;11.422;2023-05-16T12:14:03;15.95;;;10.90;;
33475;SDS011;19814;48.224;11.422;2023-05-16T12:16:29;13.88;;;10.98;;
33475;SDS011;19814;48.224;11.422;2023-05-16T12:18:56;17.25;;;10.98;;
33475;SDS011;19814;48.224;11.422;2023-05-16T12:21:22;17.23;;;11.55;;
33475;SDS011;19814;48.224;11.422;2023-05-16T12:23:48;14.95;;;10.27;;
33475;SDS011;19814;48.224;11.422;2023-05-16T12:26:14;13.30;;;9.52;;
33475;SDS011;19814;48.224;11.422;2023-05-16T12:28:40;13.60;;;10.10;;
33475;SDS011;19814;48.224;11.422;2023-05-16T12:31:17;14.13;;;10.38;;
33475;SDS011;19814;48.224;11.422;2023-05-16T12:33:43;17.83;;;10.30;;
33475;SDS011;19814;48.224;11.422;2023-05-16T12:36:13;13.07;;;10.05;;
33475;SDS011;19814;48.224;11.422;2023-05-16T12:38:39;14.07;;;9.88;;
33475;SDS011;19814;48.224;11.422;2023-05-16T12:41:06;15.27;;;10.70;;
33475;SDS011;19814;48.224;11.422;2023-05-16T12:43:31;12.57;;;9.18;;
33475;SDS011;19814;48.224;11.422;2023-05-16T12:45:57;12.90;;;10.23;;
33475;SDS011;19814;48.224;11.422;2023-05-16T12:48:23;14.75;;;10.45;;
33475;SDS011;19814;48.224;11.422;2023-05-16T12:51:07;14.00;;;9.93;;
33475;SDS011;19814;48.224;11.422;2023-05-16T12:53:43;13.93;;;9.90;;
33475;SDS011;19814;48.224;11.422;2023-05-16T12:56:11;13.35;;;9.95;;
33475;SDS011;19814;48.224;11.422;2023-05-16T12:58:37;12.00;;;9.50;;
33475;SDS011;19814;48.224;11.422;2023-05-16T13:01:04;12.50;;;9.13;;
33475;SDS011;19814;48.224;11.422;2023-05-16T13:03:30;9.95;;;6.28;;
33475;SDS011;19814;48.224;11.422;2023-05-16T13:05:56;7.57;;;5.20;;
33475;SDS011;19814;48.224;11.422;2023-05-16T13:08:22;7.20;;;4.95;;
33475;SDS011;19814;48.224;11.422;2023-05-16T13:10:48;7.13;;;4.90;;
33475;SDS011;19814;48.224;11.422;2023-05-16T13:13:14;7.40;;;5.40;;
33475;SDS011;19814;48.224;11.422;2023-05-16T13:15:40;8.05;;;5.10;;
33475;SDS011;19814;48.224;11.422;2023-05-16T13:18:06;9.18;;;5.88;;
33475;SDS011;19814;48.224;11.422;2023-05-16T13:20:32;8.95;;;6.15;;
33475;SDS011;19814;48.224;11.422;2023-05-16T13:22:57;9.40;;;5.50;;
33475;SDS011;19814;48.224;11.422;2023-05-16T13:25:23;9.23;;;6.25;;
33475;SDS011;19814;48.224;11.422;2023-05-16T13:27:48;8.73;;;5.75;;
33475;SDS011;19814;48.224;11.422;2023-05-16T13:30:14;7.65;;;5.60;;
33475;SDS011;19814;48.224;11.422;2023-05-16T13:32:40;9.18;;;6.13;;
33475;SDS011;19814;48.224;11.422;2023-05-16T13:35:06;8.65;;;6.13;;
33475;SDS011;19814;48.224;11.422;2023-05-16T13:37:32;7.43;;;5.22;;
33475;SDS011;19814;48.224;11.422;2023-05-16T13:39:58;8.27;;;6.00;;
33475;SDS011;19814;48.224;11.422;2023-05-16T13:42:23;8.88;;;5.93;;
33475;SDS011;19814;48.224;11.422;2023-05-16T13:44:49;8.70;;;6.30;;
33475;SDS011;19814;48.224;11.422;2023-05-16T13:47:15;9.90;;;6.40;;
33475;SDS011;19814;48.224;11.422;2023-05-16T13:49:40;9.48;;;6.32;;
33475;SDS011;19814;48.224;11.422;2023-05-16T13:52:06;8.85;;;5.53;;
33475;SDS011;19814;48.224;11.422;2023-05-16T13:54:32;10.65;;;6.60;;
33475;SDS011;19814;48.224;11.422;2023-05-16T13:56:57;11.52;;;6.35;;
33475;SDS011;19814;48.224;11.422;2023-05-16T13:59:23;9.32;;;6.18;;
33475;SDS011;19814;48.224;11.422;2023-05-16T14:01:49;9.60;;;5.97;;
33475;SDS011;19814;48.224;11.422;2023-05-16T14:04:15;8.65;;;6.03;;
33475;SDS011;19814;48.224;11.422;2023-05-16T14:06:40;10.20;;;6.25;;
33475;SDS011;19814;48.224;11.422;2023-05-16T14:09:06;10.18;;;6.43;;
33475;SDS011;19814;48.224;11.422;2023-05-16T14:11:32;9.18;;;6.28;;
33475;SDS011;19814;48.224;11.422;2023-05-16T14:13:57;9.82;;;6.70;;
33475;SDS011;19814;48.224;11.422;2023-05-16T14:16:24;10.38;;;6.18;;
33475;SDS011;19814;48.224;11.422;2023-05-16T14:18:50;11.98;;;7.03;;
33475;SDS011;19814;48.224;11.422;2023-05-16T14:21:15;10.48;;;6.40;;
33475;SDS011;19814;48.224;11.422;2023-05-16T14:23:41;13.27;;;6.47;;
33475;SDS011;19814;48.224;11.422;2023-05-16T14:26:06;10.45;;;6.97;;
33475;SDS011;19814;48.224;11.422;2023-05-16T14:28:32;11.18;;;6.47;;
33475;SDS011;19814;48.224;11.422;2023-05-16T14:30:58;10.93;;;5.80;;
33475;SDS011;19814;48.224;11.422;2023-05-16T14:33:24;11.77;;;6.32;;
33475;SDS011;19814;48.224;11.422;2023-05-16T14:35:50;9.95;;;5.82;;
33475;SDS011;19814;48.224;11.422;2023-05-16T14:38:16;8.02;;;5.53;;
33475;SDS011;19814;48.224;11.422;2023-05-16T14:40:41;8.77;;;5.78;;
33475;SDS011;19814;48.224;11.422;2023-05-16T14:43:07;8.15;;;5.13;;
33475;SDS011;19814;48.224;11.422;2023-05-16T14:45:33;8.02;;;4.80;;
33475;SDS011;19814;48.224;11.422;2023-05-16T14:47:58;7.28;;;5.13;;
33475;SDS011;19814;48.224;11.422;2023-05-16T14:50:24;6.93;;;4.88;;
33475;SDS011;19814;48.224;11.422;2023-05-16T14:52:49;8.38;;;5.03;;
33475;SDS011;19814;48.224;11.422;2023-05-16T14:55:16;8.43;;;5.50;;
33475;SDS011;19814;48.224;11.422;2023-05-16T14:57:42;8.02;;;5.03;;
33475;SDS011;19814;48.224;11.422;2023-05-16T15:00:08;11.20;;;5.13;;